Nissho Maru No.18 — JL6369 — position and weather

sailwx.info

Track history (hours):
 
Tides and Currents Weather Stations Pressure Air Temp Water Temp Dewpoint Dewpoint Depression Visibility Wind Speed Wind Dir Waves Ship Positions

Nissho Maru No.18

Last reported at 2017-Feb-19 14:30 UTC. Time now 2017-Feb-19 16:50 UTC.
Position N 34°37' E 134°57'.

Length 65 m; draft 4 m.

Type: Tanker. MMSI: 431500465.

Date/timePositionNaut miles runAvg speedWind from/ knotsBaromVisibWave heightAir tempDewpointWater temp
2017-Feb-19 14:30N 34°37' E 134°57'7 7.8
2017-Feb-19 13:33N 34°33' E 135°05'1311.0
2017-Feb-19 12:22N 34°21' E 135°01'8 9.6
2017-Feb-19 11:33N 34°13' E 134°60'229 8.1
2017-Feb-18 07:29N 35°03' E 139°31'1010.9
2017-Feb-18 06:33N 35°07' E 139°42'1010.3
2017-Feb-18 05:34N 35°17' E 139°44'9 9.3
2017-Feb-18 04:34N 35°26' E 139°46'1210.6
2017-Feb-18 03:28N 35°30' E 139°60'2 0.5
2017-Feb-17 23:14N 35°30' E 140°02'4 5.5
2017-Feb-17 22:34N 35°32' E 139°58'6 5.5
2017-Feb-17 21:34N 35°35' E 139°53'0 0.0
2017-Feb-17 20:05N 35°35' E 139°53'0 0.0
2017-Feb-17 19:24N 35°35' E 139°53'0 0.0
2017-Feb-17 18:25N 35°35' E 139°53'0 0.0
2017-Feb-17 17:30N 35°35' E 139°53'0 0.0
2017-Feb-17 16:27N 35°35' E 139°53'0 0.0
2017-Feb-17 15:33N 35°35' E 139°53'0 0.0
2017-Feb-17 14:33N 35°35' E 139°53'0 0.0
2017-Feb-17 11:31N 35°35' E 139°53'0 0.1
2017-Feb-17 10:31N 35°35' E 139°53'0 0.0
2017-Feb-17 09:33N 35°35' E 139°53'0 0.0
2017-Feb-17 08:32N 35°35' E 139°53'0 0.0
2017-Feb-17 07:32N 35°35' E 139°53'0 0.0
2017-Feb-17 06:33N 35°35' E 139°53'0 0.0
2017-Feb-17 05:32N 35°35' E 139°53'0 0.0
2017-Feb-17 04:33N 35°35' E 139°53'5 5.4
2017-Feb-17 03:33N 35°31' E 139°50'3 2.9
2017-Feb-17 02:34N 35°31' E 139°46'0 0.0
2017-Feb-17 01:34N 35°31' E 139°46'0 0.0
2017-Feb-17 00:34N 35°31' E 139°46'0 0.0
2017-Feb-16 23:33N 35°31' E 139°46'0 0.0
2017-Feb-16 22:34N 35°31' E 139°46'3 3.3
2017-Feb-16 21:33N 35°31' E 139°50'0 0.0
2017-Feb-16 20:32N 35°31' E 139°50'0 0.1
2017-Feb-16 19:33N 35°31' E 139°50'0 0.0
2017-Feb-16 18:33N 35°30' E 139°50'0 0.0
2017-Feb-16 17:33N 35°30' E 139°50'0 0.0
2017-Feb-16 16:30N 35°30' E 139°50'0 0.0
2017-Feb-16 15:33N 35°30' E 139°50'0 0.0
2017-Feb-16 14:31N 35°30' E 139°50'0 0.0
2017-Feb-16 13:31N 35°31' E 139°50'0 0.0
2017-Feb-16 12:33N 35°31' E 139°50'0 0.0
2017-Feb-16 11:33N 35°31' E 139°50'0 0.0
2017-Feb-16 10:32N 35°31' E 139°50'0 0.0
2017-Feb-16 09:33N 35°31' E 139°50'0 0.0
2017-Feb-16 08:33N 35°31' E 139°50'4 4.2
2017-Feb-16 07:33N 35°30' E 139°55'6 4.8
2017-Feb-16 06:23N 35°30' E 140°02'0 0.0
2017-Feb-16 05:33N 35°30' E 140°02'0 0.0
2017-Feb-16 04:33N 35°30' E 140°02'2 1.3
2017-Feb-16 03:15N 35°30' E 140°00'4 0.2
2017-Feb-15 06:28N 35°29' E 139°55'9 9.6
2017-Feb-15 05:32N 35°23' E 139°46'1110.9
2017-Feb-15 04:31N 35°12' E 139°47'2 0.1
2017-Feb-13 12:23N 35°11' E 139°45'911.3
2017-Feb-13 11:33N 35°20' E 139°42'1110.8
2017-Feb-13 10:33N 35°30' E 139°47'2 2.2
2017-Feb-13 09:33N 35°30' E 139°45'0 0.0
2017-Feb-13 08:33N 35°30' E 139°45'0 0.0
2017-Feb-13 07:33N 35°30' E 139°45'0 0.0
2017-Feb-13 06:33N 35°30' E 139°45'0 0.0
2017-Feb-13 05:33N 35°30' E 139°45'3 2.8
2017-Feb-13 04:33N 35°29' E 139°48'1111.1
2017-Feb-13 03:33N 35°18' E 139°44'1110.8
2017-Feb-13 02:31N 35°07' E 139°46'  
2017-Feb-10 18:27N 34°12' E 134°59'1112.6
2017-Feb-10 17:32N 34°24' E 134°60'1212.0
2017-Feb-10 16:34N 34°35' E 135°03'  
Track history (hours):
 
Tides and Currents Weather Stations Pressure Air Temp Water Temp Dewpoint Dewpoint Depression Visibility Wind Speed Wind Dir Waves Ship Positions

Nissho Maru No.18

Last reported at 2017-Feb-19 14:30 UTC. Time now 2017-Feb-19 16:50 UTC.
Position N 34°37' E 134°57'.

Length 65 m; draft 4 m.

Type: Tanker. MMSI: 431500465.

Date/timePositionNaut miles runAvg speedWind from/ knotsBaromVisibWave heightAir tempDewpointWater temp
2017-Feb-19 14:30N 34°37' E 134°57'7 7.8
2017-Feb-19 13:33N 34°33' E 135°05'1311.0
2017-Feb-19 12:22N 34°21' E 135°01'8 9.6
2017-Feb-19 11:33N 34°13' E 134°60'229 8.1
2017-Feb-18 07:29N 35°03' E 139°31'1010.9
2017-Feb-18 06:33N 35°07' E 139°42'1010.3
2017-Feb-18 05:34N 35°17' E 139°44'9 9.3
2017-Feb-18 04:34N 35°26' E 139°46'1210.6
2017-Feb-18 03:28N 35°30' E 139°60'2 0.5
2017-Feb-17 23:14N 35°30' E 140°02'4 5.5
2017-Feb-17 22:34N 35°32' E 139°58'6 5.5
2017-Feb-17 21:34N 35°35' E 139°53'0 0.0
2017-Feb-17 20:05N 35°35' E 139°53'0 0.0
2017-Feb-17 19:24N 35°35' E 139°53'0 0.0
2017-Feb-17 18:25N 35°35' E 139°53'0 0.0
2017-Feb-17 17:30N 35°35' E 139°53'0 0.0
2017-Feb-17 16:27N 35°35' E 139°53'0 0.0
2017-Feb-17 15:33N 35°35' E 139°53'0 0.0
2017-Feb-17 14:33N 35°35' E 139°53'0 0.0
2017-Feb-17 11:31N 35°35' E 139°53'0 0.1
2017-Feb-17 10:31N 35°35' E 139°53'0 0.0
2017-Feb-17 09:33N 35°35' E 139°53'0 0.0
2017-Feb-17 08:32N 35°35' E 139°53'0 0.0
2017-Feb-17 07:32N 35°35' E 139°53'0 0.0
2017-Feb-17 06:33N 35°35' E 139°53'0 0.0
2017-Feb-17 05:32N 35°35' E 139°53'0 0.0
2017-Feb-17 04:33N 35°35' E 139°53'5 5.4
2017-Feb-17 03:33N 35°31' E 139°50'3 2.9
2017-Feb-17 02:34N 35°31' E 139°46'0 0.0
2017-Feb-17 01:34N 35°31' E 139°46'0 0.0
2017-Feb-17 00:34N 35°31' E 139°46'0 0.0
2017-Feb-16 23:33N 35°31' E 139°46'0 0.0
2017-Feb-16 22:34N 35°31' E 139°46'3 3.3
2017-Feb-16 21:33N 35°31' E 139°50'0 0.0
2017-Feb-16 20:32N 35°31' E 139°50'0 0.1
2017-Feb-16 19:33N 35°31' E 139°50'0 0.0
2017-Feb-16 18:33N 35°30' E 139°50'0 0.0
2017-Feb-16 17:33N 35°30' E 139°50'0 0.0
2017-Feb-16 16:30N 35°30' E 139°50'0 0.0
2017-Feb-16 15:33N 35°30' E 139°50'0 0.0
2017-Feb-16 14:31N 35°30' E 139°50'0 0.0
2017-Feb-16 13:31N 35°31' E 139°50'0 0.0
2017-Feb-16 12:33N 35°31' E 139°50'0 0.0
2017-Feb-16 11:33N 35°31' E 139°50'0 0.0
2017-Feb-16 10:32N 35°31' E 139°50'0 0.0
2017-Feb-16 09:33N 35°31' E 139°50'0 0.0
2017-Feb-16 08:33N 35°31' E 139°50'4 4.2
2017-Feb-16 07:33N 35°30' E 139°55'6 4.8
2017-Feb-16 06:23N 35°30' E 140°02'0 0.0
2017-Feb-16 05:33N 35°30' E 140°02'0 0.0
2017-Feb-16 04:33N 35°30' E 140°02'2 1.3
2017-Feb-16 03:15N 35°30' E 140°00'4 0.2
2017-Feb-15 06:28N 35°29' E 139°55'9 9.6
2017-Feb-15 05:32N 35°23' E 139°46'1110.9
2017-Feb-15 04:31N 35°12' E 139°47'2 0.1
2017-Feb-13 12:23N 35°11' E 139°45'911.3
2017-Feb-13 11:33N 35°20' E 139°42'1110.8
2017-Feb-13 10:33N 35°30' E 139°47'2 2.2
2017-Feb-13 09:33N 35°30' E 139°45'0 0.0
2017-Feb-13 08:33N 35°30' E 139°45'0 0.0
2017-Feb-13 07:33N 35°30' E 139°45'0 0.0
2017-Feb-13 06:33N 35°30' E 139°45'0 0.0
2017-Feb-13 05:33N 35°30' E 139°45'3 2.8
2017-Feb-13 04:33N 35°29' E 139°48'1111.1
2017-Feb-13 03:33N 35°18' E 139°44'1110.8
2017-Feb-13 02:31N 35°07' E 139°46'  
2017-Feb-10 18:27N 34°12' E 134°59'1112.6
2017-Feb-10 17:32N 34°24' E 134°60'1212.0
2017-Feb-10 16:34N 34°35' E 135°03'  

Dump ship's entire track history